Terminal Aerodrome Forecast
Issued by NWS

Home | Current Version | Previous Version | Text Only | Print | Product List | Glossary On
Versions: 1 2 3 4 5 6 7 8 9 10 11 12 13 14 15 16 17 18 19 20 21 22 23 24 25 26 27 28 29 30 31 32 33 34 35 36 37 38 39 40 41 42 43 44 45 46 47 48 49 50
000
FTUS41 KCTP 272338
TAFBFD
TAF
KBFD 272338Z 2800/2824 19008G18KT P6SM VCSH BKN035 OVC045
      WS020/23040KT
      TEMPO 2800/2803 5SM -RA OVC030
     FM280300 22008KT 4SM -RA SCT015 BKN025 OVC050 WS020/23040KT
     FM280600 23007KT 3SM -RA BR OVC012 WS018/26035KT
     FM280800 25007KT 2SM -RA BR OVC009
     FM281100 28007KT 1 1/2SM -SNRA OVC007
     FM281500 29007KT 5SM -SHSN OVC015
     FM282000 30009KT P6SM -SHSN OVC040=

USA.gov is the U.S. government's official web portal to all federal, state and local government web resources and services.